Hong Kong Bridge — 9V8128 — position and weather

sailwx.info

Track history (hours):
 
Tides and Currents Weather Stations Pressure Air Temp Water Temp Dewpoint Dewpoint Depression Visibility Wind Speed Wind Dir Waves Ship Positions

Hong Kong Bridge

Last reported at 2018-Feb-22 07:30 UTC. Time now 2018-Feb-25 01:43 UTC.
Position N 38°10' W 124°22'.

Length 336 m; draft 12.5 m.

Type: Ship (hazmat cat D). MMSI: 565043000.

Date/timePositionNaut miles runAvg speedWind from/ knotsBaromVisibWave heightAir tempDewpointWater temp
2018-Feb-22 07:30N 38°10' W 124°22'1019.8
2018-Feb-22 07:00N 38°10' W 124°09'1020.3
2018-Feb-22 06:30N 38°09' W 123°56'1020.1
2018-Feb-22 06:00N 38°09' W 123°44'1019.6
2018-Feb-22 05:30N 38°09' W 123°31'918.6
2018-Feb-22 05:00N 38°08' W 123°19'1019.1
2018-Feb-22 04:30N 38°01' W 123°11'919.0
2018-Feb-22 04:00N 37°55' W 123°01'1019.3
2018-Feb-22 03:30N 37°51' W 122°51'916.9
2018-Feb-22 03:00N 37°46' W 122°42'713.3
2018-Feb-22 02:30N 37°47' W 122°33'815.1
2018-Feb-22 02:00N 37°50' W 122°25'4 7.8
2018-Feb-22 01:30N 37°49' W 122°20'0 0.9
2018-Feb-22 01:00N 37°49' W 122°20'0 0.2
2018-Feb-22 00:29N 37°49' W 122°20'0 0.0
2018-Feb-21 23:59N 37°49' W 122°20'0 0.1
2018-Feb-21 23:29N 37°49' W 122°20'0 0.1
2018-Feb-21 22:59N 37°49' W 122°20'0 0.0
2018-Feb-21 22:29N 37°49' W 122°20'0 0.0
2018-Feb-21 21:59N 37°49' W 122°20'0 0.0
2018-Feb-21 21:29N 37°49' W 122°20'0 0.0
2018-Feb-21 20:56N 37°49' W 122°20'0 0.0
2018-Feb-21 20:29N 37°49' W 122°20'0 0.1
2018-Feb-21 19:59N 37°49' W 122°20'0 0.1
2018-Feb-21 19:29N 37°49' W 122°20'0 0.0
2018-Feb-21 18:59N 37°49' W 122°20'0 0.1
2018-Feb-21 18:29N 37°49' W 122°20'0 0.1
2018-Feb-21 17:59N 37°49' W 122°20'0 0.0
2018-Feb-21 17:29N 37°49' W 122°20'0 0.0
2018-Feb-21 16:59N 37°49' W 122°20'0 0.0
2018-Feb-21 16:29N 37°49' W 122°20'0 0.0
2018-Feb-21 15:59N 37°49' W 122°20'0 0.0
2018-Feb-21 15:29N 37°49' W 122°20'0 0.1
2018-Feb-21 14:59N 37°49' W 122°20'0 0.0
2018-Feb-21 14:29N 37°49' W 122°20'0 0.1
2018-Feb-21 13:59N 37°49' W 122°20'0 0.0
2018-Feb-21 13:29N 37°49' W 122°20'0 0.0
2018-Feb-21 12:59N 37°49' W 122°20'0 0.0
2018-Feb-21 12:29N 37°49' W 122°20'0 0.0
2018-Feb-21 11:59N 37°49' W 122°20'0 0.0
2018-Feb-21 11:29N 37°49' W 122°20'0 0.0
2018-Feb-21 10:59N 37°49' W 122°20'0 0.0
2018-Feb-21 10:29N 37°49' W 122°20'0 0.0
2018-Feb-21 09:59N 37°49' W 122°20'0 0.0
2018-Feb-21 09:29N 37°49' W 122°20'0 0.1
2018-Feb-21 08:59N 37°49' W 122°20'0 0.1
2018-Feb-21 08:29N 37°49' W 122°20'0 0.1
2018-Feb-21 07:59N 37°49' W 122°20'0 0.1
2018-Feb-21 07:29N 37°49' W 122°20'0 0.1
2018-Feb-21 06:56N 37°49' W 122°20'0 0.1
2018-Feb-21 06:29N 37°49' W 122°20'0 0.0
2018-Feb-21 05:59N 37°49' W 122°20'0 0.0
2018-Feb-21 05:26N 37°49' W 122°20'0 0.0
2018-Feb-21 04:59N 37°49' W 122°20'0 0.1
2018-Feb-21 04:29N 37°49' W 122°20'0 0.1
2018-Feb-21 03:59N 37°49' W 122°20'0 0.0
2018-Feb-21 03:29N 37°49' W 122°20'0 0.0
2018-Feb-21 02:59N 37°49' W 122°20'0 0.0
2018-Feb-21 02:23N 37°49' W 122°20'0 0.1
2018-Feb-21 01:56N 37°49' W 122°20'0 0.1
2018-Feb-21 01:29N 37°49' W 122°20'0 0.6
2018-Feb-21 01:01N 37°49' W 122°20'2 4.7
2018-Feb-21 00:30N 37°49' W 122°23'4 8.8
2018-Feb-21 00:00N 37°49' W 122°29'815.8
2018-Feb-20 23:30N 37°46' W 122°38'4 8.9
2018-Feb-20 23:01N 37°42' W 122°40'611.1
2018-Feb-20 22:30N 37°36' W 122°40'5 9.9
2018-Feb-20 22:01N 37°31' W 122°40'5 9.5
2018-Feb-20 21:30N 37°27' W 122°40'5 9.4
2018-Feb-20 21:00N 37°22' W 122°39'5 9.6
2018-Feb-20 20:30N 37°17' W 122°39'5 9.5
2018-Feb-20 20:01N 37°12' W 122°38'5 9.4
2018-Feb-20 19:30N 37°08' W 122°37'4 7.7
2018-Feb-20 19:01N 37°04' W 122°35'1 1.5
2018-Feb-20 18:31N 37°05' W 122°36'1 1.4
2018-Feb-20 18:01N 37°05' W 122°36'1 1.4
2018-Feb-20 17:30N 37°06' W 122°37'1 1.5
2018-Feb-20 17:00N 37°06' W 122°37'1 1.5
2018-Feb-20 16:30N 37°07' W 122°38'1 1.6
2018-Feb-20 16:00N 37°08' W 122°38'1 1.6
2018-Feb-20 15:31N 37°08' W 122°39'0 0.9
2018-Feb-20 15:01N 37°08' W 122°39'4 8.3
2018-Feb-20 14:30N 37°04' W 122°38'5 9.5
2018-Feb-20 14:01N 36°60' W 122°36'5 9.6
2018-Feb-20 13:30N 36°55' W 122°33'107 8.5
2018-Feb-20 00:56N 35°22' W 121°29'3 7.6
2018-Feb-20 00:30N 35°19' W 121°27'4 8.0
2018-Feb-20 00:01N 35°16' W 121°25'4 8.1
2018-Feb-19 23:30N 35°12' W 121°23'4 7.9
2018-Feb-19 23:01N 35°09' W 121°20'4 8.1
2018-Feb-19 22:30N 35°05' W 121°18'4 8.3
2018-Feb-19 22:00N 35°02' W 121°15'4 8.3
2018-Feb-19 21:31N 34°58' W 121°13'4 8.6
2018-Feb-19 21:00N 34°54' W 121°10'5 9.5
2018-Feb-19 20:31N 34°50' W 121°08'5 9.7
2018-Feb-19 19:59N 34°45' W 121°05'5 9.8
2018-Feb-19 19:31N 34°41' W 121°02'5 9.9
2018-Feb-19 19:01N 34°37' W 120°59'510.1
2018-Feb-19 18:30N 34°33' W 120°56'510.3
2018-Feb-19 18:00N 34°28' W 120°53'5 9.3
2018-Feb-19 17:31N 34°25' W 120°48'510.2
2018-Feb-19 17:00N 34°24' W 120°42'510.5
2018-Feb-19 16:30N 34°23' W 120°36'510.5
2018-Feb-19 16:00N 34°22' W 120°30'510.7
2018-Feb-19 15:30N 34°20' W 120°24'611.5
2018-Feb-19 15:00N 34°18' W 120°17'611.6
2018-Feb-19 14:29N 34°17' W 120°10'611.6
2018-Feb-19 14:00N 34°16' W 120°03'5 9.8
2018-Feb-19 13:30N 34°14' W 119°58'5 9.7
2018-Feb-19 12:59N 34°13' W 119°52'5 9.9
2018-Feb-19 12:30N 34°12' W 119°46'5 9.6
2018-Feb-19 12:00N 34°10' W 119°41'5 9.5
2018-Feb-19 11:30N 34°09' W 119°35'5 9.8
2018-Feb-19 10:58N 34°08' W 119°29'5 9.4
2018-Feb-19 10:29N 34°06' W 119°24'5 9.2
2018-Feb-19 10:00N 34°05' W 119°19'5 9.1
2018-Feb-19 09:28N 34°03' W 119°13'5 9.6
2018-Feb-19 08:55N 34°01' W 119°08'4 9.4
2018-Feb-19 08:30N 33°59' W 119°04'5 9.9
2018-Feb-19 07:59N 33°56' W 118°58'5 9.9
2018-Feb-19 07:30N 33°54' W 118°53'510.1
2018-Feb-19 07:01N 33°51' W 118°48'5 9.7
2018-Feb-19 06:31N 33°49' W 118°43'5 9.9
2018-Feb-19 06:01N 33°47' W 118°38'5 9.6
2018-Feb-19 05:30N 33°44' W 118°33'510.1
2018-Feb-19 05:00N 33°42' W 118°28'510.0
2018-Feb-19 04:30N 33°39' W 118°22'5 9.3
2018-Feb-19 03:56N 33°39' W 118°16'4 9.0
2018-Feb-19 03:31N 33°40' W 118°12'4 7.8
2018-Feb-19 03:01N 33°44' W 118°12'0 0.6
2018-Feb-19 02:16N 33°45' W 118°12'0 0.0
2018-Feb-19 01:49N 33°45' W 118°12'0 0.0
2018-Feb-19 01:19N 33°45' W 118°12'0 0.0
2018-Feb-19 00:55N 33°45' W 118°12'0 0.0
2018-Feb-19 00:28N 33°45' W 118°12'0 0.0
2018-Feb-18 23:58N 33°45' W 118°12'0 0.0
2018-Feb-18 23:28N 33°45' W 118°12'0 0.0
2018-Feb-18 22:58N 33°45' W 118°12'0 0.0
2018-Feb-18 22:28N 33°45' W 118°12'0 0.0
2018-Feb-18 21:58N 33°45' W 118°12'0 0.0
2018-Feb-18 21:28N 33°45' W 118°12'0 0.0
2018-Feb-18 20:58N 33°45' W 118°12'0 0.0
2018-Feb-18 20:28N 33°45' W 118°12'0 0.0
2018-Feb-18 19:58N 33°45' W 118°12'0 0.0
2018-Feb-18 19:28N 33°45' W 118°12'0 0.0
2018-Feb-18 18:58N 33°45' W 118°12'0 0.0
2018-Feb-18 18:28N 33°45' W 118°12'0 0.0
2018-Feb-18 17:58N 33°45' W 118°12'0 0.0
2018-Feb-18 17:28N 33°45' W 118°12'0 0.0
2018-Feb-18 16:58N 33°45' W 118°12'0 0.0
2018-Feb-18 16:28N 33°45' W 118°12'0 0.0
2018-Feb-18 15:58N 33°45' W 118°12'0 0.0
2018-Feb-18 15:25N 33°45' W 118°12'0 0.0
2018-Feb-18 14:58N 33°45' W 118°12'0 0.0
2018-Feb-18 14:28N 33°45' W 118°12'0 0.0
2018-Feb-18 13:58N 33°45' W 118°12'0 0.0
2018-Feb-18 13:25N 33°45' W 118°12'0 0.0
2018-Feb-18 12:58N 33°45' W 118°12'0 0.0
2018-Feb-18 12:25N 33°45' W 118°12'0 0.0
2018-Feb-18 11:58N 33°45' W 118°12'0 0.0
2018-Feb-18 11:28N 33°45' W 118°12'0 0.0
2018-Feb-18 10:58N 33°45' W 118°12'0 0.0
2018-Feb-18 10:13N 33°45' W 118°12'0 0.0
2018-Feb-18 09:49N 33°45' W 118°12'0 0.0
2018-Feb-18 09:28N 33°45' W 118°12'0 0.0
2018-Feb-18 08:34N 33°45' W 118°12'0 0.0
2018-Feb-18 08:28N 33°45' W 118°12'0 0.0
2018-Feb-18 07:37N 33°45' W 118°12'0 0.0
2018-Feb-18 07:25N 33°45' W 118°12'0 0.0
2018-Feb-18 06:13N 33°45' W 118°12'0 0.2
2018-Feb-18 05:58N 33°45' W 118°12'0 0.1
2018-Feb-18 05:28N 33°45' W 118°12'0 0.0
2018-Feb-18 04:58N 33°45' W 118°12'0 0.0
2018-Feb-18 04:28N 33°45' W 118°12'0 0.0
2018-Feb-18 03:58N 33°45' W 118°12'0 0.0
2018-Feb-18 03:28N 33°45' W 118°12'0 0.0
2018-Feb-18 02:58N 33°45' W 118°12'0 0.0
2018-Feb-18 02:28N 33°45' W 118°12'0 0.0
2018-Feb-18 01:58N 33°45' W 118°12'0 0.0
2018-Feb-18 01:28N 33°45' W 118°12'0 0.0
2018-Feb-18 00:58N 33°45' W 118°12'0 0.0
2018-Feb-18 00:28N 33°45' W 118°12'0 0.0
2018-Feb-17 23:58N 33°45' W 118°12'0 0.0
2018-Feb-17 23:28N 33°45' W 118°12'0 0.0
2018-Feb-17 22:58N 33°45' W 118°12'0 0.0
2018-Feb-17 22:28N 33°45' W 118°12'0 0.0
2018-Feb-17 21:58N 33°45' W 118°12'0 0.0
2018-Feb-17 21:28N 33°45' W 118°12'0 0.0
2018-Feb-17 20:58N 33°45' W 118°12'0 0.0
2018-Feb-17 20:28N 33°45' W 118°12'0 0.0
2018-Feb-17 19:58N 33°45' W 118°12'0 0.1
2018-Feb-17 19:28N 33°45' W 118°12'0 0.1
2018-Feb-17 18:58N 33°45' W 118°12'0 0.0
2018-Feb-17 18:28N 33°45' W 118°12'0 0.0
2018-Feb-17 17:58N 33°45' W 118°12'0 0.1
2018-Feb-17 17:28N 33°45' W 118°12'0 0.0
2018-Feb-17 16:58N 33°45' W 118°12'0 0.0
2018-Feb-17 16:28N 33°45' W 118°12'0 0.0
2018-Feb-17 15:58N 33°45' W 118°12'0 0.0
2018-Feb-17 15:28N 33°45' W 118°12'0 0.0
2018-Feb-17 14:55N 33°45' W 118°12'0 0.1
2018-Feb-17 14:28N 33°45' W 118°12'0 0.0
2018-Feb-17 13:58N 33°45' W 118°12'0 0.1
2018-Feb-17 13:25N 33°45' W 118°12'0 0.1
2018-Feb-17 12:52N 33°45' W 118°12'0 0.0
2018-Feb-17 12:25N 33°45' W 118°12'0 0.0
2018-Feb-17 11:55N 33°45' W 118°12'0 0.0
2018-Feb-17 11:25N 33°45' W 118°12'0 0.0
2018-Feb-17 10:52N 33°45' W 118°12'0 0.0
2018-Feb-17 10:25N 33°45' W 118°12'0 0.1
2018-Feb-17 09:58N 33°45' W 118°12'0 0.1
2018-Feb-17 09:28N 33°45' W 118°12'0 0.0
2018-Feb-17 08:55N 33°45' W 118°12'0 0.0
2018-Feb-17 08:28N 33°45' W 118°12'0 0.0
2018-Feb-17 07:55N 33°45' W 118°12'0 0.1
2018-Feb-17 07:25N 33°45' W 118°12'0 0.1
2018-Feb-17 06:58N 33°45' W 118°12'0 0.0
2018-Feb-17 06:28N 33°45' W 118°12'0 0.0
2018-Feb-17 05:58N 33°45' W 118°12'0 0.0
2018-Feb-17 05:25N 33°45' W 118°12'0 0.0
2018-Feb-17 04:58N 33°45' W 118°12'0 0.0
2018-Feb-17 04:22N 33°45' W 118°12'0 0.0
2018-Feb-17 03:58N 33°45' W 118°12'0 0.0
2018-Feb-17 03:25N 33°45' W 118°12'0 0.0
2018-Feb-17 02:58N 33°45' W 118°12'0 0.0
2018-Feb-17 02:28N 33°45' W 118°12'0 0.0
2018-Feb-17 01:58N 33°45' W 118°12'0 0.0
2018-Feb-17 01:28N 33°45' W 118°12'0 0.0
2018-Feb-17 00:58N 33°45' W 118°12'0 0.0
2018-Feb-17 00:28N 33°45' W 118°12'0 0.0
2018-Feb-16 23:58N 33°45' W 118°12'0 0.0
2018-Feb-16 23:28N 33°45' W 118°12'0 0.0
2018-Feb-16 22:58N 33°45' W 118°12'0 0.0
2018-Feb-16 22:28N 33°45' W 118°12'0 0.0
2018-Feb-16 21:58N 33°45' W 118°12'0 0.0
2018-Feb-16 21:28N 33°45' W 118°12'0 0.1
2018-Feb-16 20:58N 33°45' W 118°12'0 0.1
2018-Feb-16 20:28N 33°45' W 118°12'0 0.0
2018-Feb-16 19:58N 33°45' W 118°12'0 0.0
2018-Feb-16 19:28N 33°45' W 118°12'0 0.0
2018-Feb-16 18:58N 33°45' W 118°12'0 0.0
2018-Feb-16 18:28N 33°45' W 118°12'0 0.0
2018-Feb-16 17:58N 33°45' W 118°12'0 0.0
2018-Feb-16 17:28N 33°45' W 118°12'0 0.0
2018-Feb-16 16:58N 33°45' W 118°12'0 0.0
2018-Feb-16 16:25N 33°45' W 118°12'0 0.0
2018-Feb-16 15:58N 33°45' W 118°12'0 0.0
2018-Feb-16 15:28N 33°45' W 118°12'0 0.1
2018-Feb-16 14:55N 33°45' W 118°12'0 0.1
2018-Feb-16 14:28N 33°45' W 118°12'0 0.1
2018-Feb-16 13:52N 33°45' W 118°12'0 0.0
2018-Feb-16 13:28N 33°45' W 118°12'0 0.1
2018-Feb-16 12:58N 33°45' W 118°12'0 0.0
2018-Feb-16 12:28N 33°45' W 118°12'0 0.1
2018-Feb-16 11:58N 33°45' W 118°12'0 0.1
2018-Feb-16 11:28N 33°45' W 118°12'0 0.0
2018-Feb-16 10:58N 33°45' W 118°12'0 0.0
2018-Feb-16 10:28N 33°45' W 118°12'0 0.0
2018-Feb-16 09:58N 33°45' W 118°12'0 0.0
2018-Feb-16 09:25N 33°45' W 118°12'0 0.1
2018-Feb-16 08:55N 33°45' W 118°12'0 0.1
2018-Feb-16 08:28N 33°45' W 118°12'0 0.0
2018-Feb-16 07:55N 33°45' W 118°12'0 0.0
2018-Feb-16 07:28N 33°45' W 118°12'0 0.0
2018-Feb-16 06:58N 33°45' W 118°12'0 0.1
2018-Feb-16 06:28N 33°45' W 118°12'0 0.1
2018-Feb-16 05:58N 33°45' W 118°12'0 0.0
2018-Feb-16 05:28N 33°45' W 118°12'0 0.0
2018-Feb-16 04:55N 33°45' W 118°12'0 0.0
2018-Feb-16 04:28N 33°45' W 118°12'0 0.0
2018-Feb-16 03:58N 33°45' W 118°12'0 0.0
2018-Feb-16 03:28N 33°45' W 118°12'0 0.0
2018-Feb-16 02:58N 33°45' W 118°12'0 0.0
2018-Feb-16 02:28N 33°45' W 118°12'0 0.0
2018-Feb-16 01:58N 33°45' W 118°12'0 0.0
2018-Feb-16 01:28N 33°45' W 118°12'0 0.0
2018-Feb-16 00:58N 33°45' W 118°12'0 0.0
2018-Feb-16 00:28N 33°45' W 118°12'0 0.0
2018-Feb-15 23:58N 33°45' W 118°12'0 0.0
2018-Feb-15 23:28N 33°45' W 118°12'0 0.0
2018-Feb-15 22:58N 33°45' W 118°12'0 0.0
2018-Feb-15 22:28N 33°45' W 118°12'0 0.0
2018-Feb-15 21:58N 33°45' W 118°12'0 0.0
2018-Feb-15 21:28N 33°45' W 118°12'0 0.1
2018-Feb-15 20:58N 33°45' W 118°12'0 0.1
2018-Feb-15 20:28N 33°45' W 118°12'0 0.0
2018-Feb-15 19:58N 33°45' W 118°12'0 0.0
2018-Feb-15 19:28N 33°45' W 118°12'0 0.1
2018-Feb-15 18:58N 33°45' W 118°12'0 0.0
2018-Feb-15 18:28N 33°45' W 118°12'0 0.0
2018-Feb-15 17:58N 33°45' W 118°12'0 0.1
2018-Feb-15 17:28N 33°45' W 118°12'0 0.0
2018-Feb-15 16:58N 33°45' W 118°12'0 0.0
2018-Feb-15 16:28N 33°45' W 118°12'0 0.0
2018-Feb-15 15:58N 33°45' W 118°12'0 0.0
2018-Feb-15 15:28N 33°45' W 118°12'0 0.0
2018-Feb-15 14:58N 33°45' W 118°12'0 0.0
2018-Feb-15 14:28N 33°45' W 118°12'0 0.0
2018-Feb-15 13:58N 33°45' W 118°12'0 0.1
2018-Feb-15 13:28N 33°45' W 118°12'0 0.1
2018-Feb-15 12:58N 33°45' W 118°12'0 0.0
2018-Feb-15 12:25N 33°45' W 118°12'0 0.0
2018-Feb-15 11:58N 33°45' W 118°12'0 0.0
2018-Feb-15 11:28N 33°45' W 118°12'0 0.0
2018-Feb-15 10:52N 33°45' W 118°12'0 0.1
2018-Feb-15 10:22N 33°45' W 118°12'0 0.1
2018-Feb-15 09:55N 33°45' W 118°12'0 0.0
2018-Feb-15 09:28N 33°45' W 118°12'0 0.1
2018-Feb-15 08:52N 33°45' W 118°12'0 0.1
2018-Feb-15 08:28N 33°45' W 118°12'0 0.0
2018-Feb-15 07:58N 33°45' W 118°12'0 0.0
2018-Feb-15 07:25N 33°45' W 118°12'0 0.1
2018-Feb-15 06:25N 33°45' W 118°12'0 0.1
2018-Feb-15 05:55N 33°45' W 118°12'0 0.0
2018-Feb-15 05:28N 33°45' W 118°12'0 0.0
2018-Feb-15 04:58N 33°45' W 118°12'0 0.0
2018-Feb-15 04:28N 33°45' W 118°12'0 0.0
2018-Feb-15 03:52N 33°45' W 118°12'0 0.0
2018-Feb-15 03:25N 33°45' W 118°12'0 0.0
2018-Feb-15 02:58N 33°45' W 118°12'0 0.0
2018-Feb-15 02:28N 33°45' W 118°12'0 0.0
2018-Feb-15 01:58N 33°45' W 118°12'0 0.0
2018-Feb-15 01:28N 33°45' W 118°12'0 0.0
2018-Feb-15 00:58N 33°45' W 118°12'0 0.0
2018-Feb-15 00:28N 33°45' W 118°12'0 0.0
2018-Feb-14 23:58N 33°45' W 118°12'0 0.1
2018-Feb-14 23:28N 33°45' W 118°12'0 0.7
2018-Feb-14 23:00N 33°44' W 118°12'2 4.7
2018-Feb-14 22:30N 33°42' W 118°11'4 8.5
2018-Feb-14 22:00N 33°38' W 118°12'5 8.8
2018-Feb-14 21:29N 33°36' W 118°17'5 9.8
2018-Feb-14 21:01N 33°37' W 118°22'611.8
2018-Feb-14 20:30N 33°40' W 118°29'611.6
2018-Feb-14 20:00N 33°43' W 118°35'611.8
2018-Feb-14 19:31N 33°45' W 118°41'611.7
2018-Feb-14 19:01N 33°48' W 118°47'611.5
2018-Feb-14 18:30N 33°51' W 118°53'611.6
2018-Feb-14 18:00N 33°54' W 118°59'611.6
2018-Feb-14 17:30N 33°57' W 119°05'815.6
2018-Feb-14 16:59N 34°01' W 119°14'816.3
2018-Feb-14 16:30N 34°04' W 119°22'916.5
2018-Feb-14 15:59N 34°06' W 119°33'817.1
2018-Feb-14 15:30N 34°08' W 119°42'916.9
2018-Feb-14 15:00N 34°10' W 119°52'917.2
2018-Feb-14 14:28N 34°13' W 120°03'817.1
2018-Feb-14 13:59N 34°15' W 120°12'816.7
2018-Feb-14 13:30N 34°17' W 120°21'916.5
2018-Feb-14 12:58N 34°20' W 120°32'816.7
2018-Feb-14 12:30N 34°22' W 120°41'816.7
2018-Feb-14 12:00N 34°24' W 120°50'916.5
2018-Feb-14 11:29N 34°25' W 121°01'817.1
2018-Feb-14 11:00N 34°25' W 121°11'917.3
2018-Feb-14 10:30N 34°25' W 121°21'817.0
2018-Feb-14 10:00N 34°25' W 121°32'917.0
2018-Feb-14 09:30N 34°25' W 121°42'917.3
2018-Feb-14 09:00N 34°25' W 121°52'817.1
2018-Feb-14 08:30N 34°25' W 122°03'  
Track history (hours):
 
Tides and Currents Weather Stations Pressure Air Temp Water Temp Dewpoint Dewpoint Depression Visibility Wind Speed Wind Dir Waves Ship Positions

Hong Kong Bridge

Last reported at 2018-Feb-22 07:30 UTC. Time now 2018-Feb-25 01:43 UTC.
Position N 38°10' W 124°22'.

Length 336 m; draft 12.5 m.

Type: Ship (hazmat cat D). MMSI: 565043000.

Date/timePositionNaut miles runAvg speedWind from/ knotsBaromVisibWave heightAir tempDewpointWater temp
2018-Feb-22 07:30N 38°10' W 124°22'1019.8
2018-Feb-22 07:00N 38°10' W 124°09'1020.3
2018-Feb-22 06:30N 38°09' W 123°56'1020.1
2018-Feb-22 06:00N 38°09' W 123°44'1019.6
2018-Feb-22 05:30N 38°09' W 123°31'918.6
2018-Feb-22 05:00N 38°08' W 123°19'1019.1
2018-Feb-22 04:30N 38°01' W 123°11'919.0
2018-Feb-22 04:00N 37°55' W 123°01'1019.3
2018-Feb-22 03:30N 37°51' W 122°51'916.9
2018-Feb-22 03:00N 37°46' W 122°42'713.3
2018-Feb-22 02:30N 37°47' W 122°33'815.1
2018-Feb-22 02:00N 37°50' W 122°25'4 7.8
2018-Feb-22 01:30N 37°49' W 122°20'0 0.9
2018-Feb-22 01:00N 37°49' W 122°20'0 0.2
2018-Feb-22 00:29N 37°49' W 122°20'0 0.0
2018-Feb-21 23:59N 37°49' W 122°20'0 0.1
2018-Feb-21 23:29N 37°49' W 122°20'0 0.1
2018-Feb-21 22:59N 37°49' W 122°20'0 0.0
2018-Feb-21 22:29N 37°49' W 122°20'0 0.0
2018-Feb-21 21:59N 37°49' W 122°20'0 0.0
2018-Feb-21 21:29N 37°49' W 122°20'0 0.0
2018-Feb-21 20:56N 37°49' W 122°20'0 0.0
2018-Feb-21 20:29N 37°49' W 122°20'0 0.1
2018-Feb-21 19:59N 37°49' W 122°20'0 0.1
2018-Feb-21 19:29N 37°49' W 122°20'0 0.0
2018-Feb-21 18:59N 37°49' W 122°20'0 0.1
2018-Feb-21 18:29N 37°49' W 122°20'0 0.1
2018-Feb-21 17:59N 37°49' W 122°20'0 0.0
2018-Feb-21 17:29N 37°49' W 122°20'0 0.0
2018-Feb-21 16:59N 37°49' W 122°20'0 0.0
2018-Feb-21 16:29N 37°49' W 122°20'0 0.0
2018-Feb-21 15:59N 37°49' W 122°20'0 0.0
2018-Feb-21 15:29N 37°49' W 122°20'0 0.1
2018-Feb-21 14:59N 37°49' W 122°20'0 0.0
2018-Feb-21 14:29N 37°49' W 122°20'0 0.1
2018-Feb-21 13:59N 37°49' W 122°20'0 0.0
2018-Feb-21 13:29N 37°49' W 122°20'0 0.0
2018-Feb-21 12:59N 37°49' W 122°20'0 0.0
2018-Feb-21 12:29N 37°49' W 122°20'0 0.0
2018-Feb-21 11:59N 37°49' W 122°20'0 0.0
2018-Feb-21 11:29N 37°49' W 122°20'0 0.0
2018-Feb-21 10:59N 37°49' W 122°20'0 0.0
2018-Feb-21 10:29N 37°49' W 122°20'0 0.0
2018-Feb-21 09:59N 37°49' W 122°20'0 0.0
2018-Feb-21 09:29N 37°49' W 122°20'0 0.1
2018-Feb-21 08:59N 37°49' W 122°20'0 0.1
2018-Feb-21 08:29N 37°49' W 122°20'0 0.1
2018-Feb-21 07:59N 37°49' W 122°20'0 0.1
2018-Feb-21 07:29N 37°49' W 122°20'0 0.1
2018-Feb-21 06:56N 37°49' W 122°20'0 0.1
2018-Feb-21 06:29N 37°49' W 122°20'0 0.0
2018-Feb-21 05:59N 37°49' W 122°20'0 0.0
2018-Feb-21 05:26N 37°49' W 122°20'0 0.0
2018-Feb-21 04:59N 37°49' W 122°20'0 0.1
2018-Feb-21 04:29N 37°49' W 122°20'0 0.1
2018-Feb-21 03:59N 37°49' W 122°20'0 0.0
2018-Feb-21 03:29N 37°49' W 122°20'0 0.0
2018-Feb-21 02:59N 37°49' W 122°20'0 0.0
2018-Feb-21 02:23N 37°49' W 122°20'0 0.1
2018-Feb-21 01:56N 37°49' W 122°20'0 0.1
2018-Feb-21 01:29N 37°49' W 122°20'0 0.6
2018-Feb-21 01:01N 37°49' W 122°20'2 4.7
2018-Feb-21 00:30N 37°49' W 122°23'4 8.8
2018-Feb-21 00:00N 37°49' W 122°29'815.8
2018-Feb-20 23:30N 37°46' W 122°38'4 8.9
2018-Feb-20 23:01N 37°42' W 122°40'611.1
2018-Feb-20 22:30N 37°36' W 122°40'5 9.9
2018-Feb-20 22:01N 37°31' W 122°40'5 9.5
2018-Feb-20 21:30N 37°27' W 122°40'5 9.4
2018-Feb-20 21:00N 37°22' W 122°39'5 9.6
2018-Feb-20 20:30N 37°17' W 122°39'5 9.5
2018-Feb-20 20:01N 37°12' W 122°38'5 9.4
2018-Feb-20 19:30N 37°08' W 122°37'4 7.7
2018-Feb-20 19:01N 37°04' W 122°35'1 1.5
2018-Feb-20 18:31N 37°05' W 122°36'1 1.4
2018-Feb-20 18:01N 37°05' W 122°36'1 1.4
2018-Feb-20 17:30N 37°06' W 122°37'1 1.5
2018-Feb-20 17:00N 37°06' W 122°37'1 1.5
2018-Feb-20 16:30N 37°07' W 122°38'1 1.6
2018-Feb-20 16:00N 37°08' W 122°38'1 1.6
2018-Feb-20 15:31N 37°08' W 122°39'0 0.9
2018-Feb-20 15:01N 37°08' W 122°39'4 8.3
2018-Feb-20 14:30N 37°04' W 122°38'5 9.5
2018-Feb-20 14:01N 36°60' W 122°36'5 9.6
2018-Feb-20 13:30N 36°55' W 122°33'107 8.5
2018-Feb-20 00:56N 35°22' W 121°29'3 7.6
2018-Feb-20 00:30N 35°19' W 121°27'4 8.0
2018-Feb-20 00:01N 35°16' W 121°25'4 8.1
2018-Feb-19 23:30N 35°12' W 121°23'4 7.9
2018-Feb-19 23:01N 35°09' W 121°20'4 8.1
2018-Feb-19 22:30N 35°05' W 121°18'4 8.3
2018-Feb-19 22:00N 35°02' W 121°15'4 8.3
2018-Feb-19 21:31N 34°58' W 121°13'4 8.6
2018-Feb-19 21:00N 34°54' W 121°10'5 9.5
2018-Feb-19 20:31N 34°50' W 121°08'5 9.7
2018-Feb-19 19:59N 34°45' W 121°05'5 9.8
2018-Feb-19 19:31N 34°41' W 121°02'5 9.9
2018-Feb-19 19:01N 34°37' W 120°59'510.1
2018-Feb-19 18:30N 34°33' W 120°56'510.3
2018-Feb-19 18:00N 34°28' W 120°53'5 9.3
2018-Feb-19 17:31N 34°25' W 120°48'510.2
2018-Feb-19 17:00N 34°24' W 120°42'510.5
2018-Feb-19 16:30N 34°23' W 120°36'510.5
2018-Feb-19 16:00N 34°22' W 120°30'510.7
2018-Feb-19 15:30N 34°20' W 120°24'611.5
2018-Feb-19 15:00N 34°18' W 120°17'611.6
2018-Feb-19 14:29N 34°17' W 120°10'611.6
2018-Feb-19 14:00N 34°16' W 120°03'5 9.8
2018-Feb-19 13:30N 34°14' W 119°58'5 9.7
2018-Feb-19 12:59N 34°13' W 119°52'5 9.9
2018-Feb-19 12:30N 34°12' W 119°46'5 9.6
2018-Feb-19 12:00N 34°10' W 119°41'5 9.5
2018-Feb-19 11:30N 34°09' W 119°35'5 9.8
2018-Feb-19 10:58N 34°08' W 119°29'5 9.4
2018-Feb-19 10:29N 34°06' W 119°24'5 9.2
2018-Feb-19 10:00N 34°05' W 119°19'5 9.1
2018-Feb-19 09:28N 34°03' W 119°13'5 9.6
2018-Feb-19 08:55N 34°01' W 119°08'4 9.4
2018-Feb-19 08:30N 33°59' W 119°04'5 9.9
2018-Feb-19 07:59N 33°56' W 118°58'5 9.9
2018-Feb-19 07:30N 33°54' W 118°53'510.1
2018-Feb-19 07:01N 33°51' W 118°48'5 9.7
2018-Feb-19 06:31N 33°49' W 118°43'5 9.9
2018-Feb-19 06:01N 33°47' W 118°38'5 9.6
2018-Feb-19 05:30N 33°44' W 118°33'510.1
2018-Feb-19 05:00N 33°42' W 118°28'510.0
2018-Feb-19 04:30N 33°39' W 118°22'5 9.3
2018-Feb-19 03:56N 33°39' W 118°16'4 9.0
2018-Feb-19 03:31N 33°40' W 118°12'4 7.8
2018-Feb-19 03:01N 33°44' W 118°12'0 0.6
2018-Feb-19 02:16N 33°45' W 118°12'0 0.0
2018-Feb-19 01:49N 33°45' W 118°12'0 0.0
2018-Feb-19 01:19N 33°45' W 118°12'0 0.0
2018-Feb-19 00:55N 33°45' W 118°12'0 0.0
2018-Feb-19 00:28N 33°45' W 118°12'0 0.0
2018-Feb-18 23:58N 33°45' W 118°12'0 0.0
2018-Feb-18 23:28N 33°45' W 118°12'0 0.0
2018-Feb-18 22:58N 33°45' W 118°12'0 0.0
2018-Feb-18 22:28N 33°45' W 118°12'0 0.0
2018-Feb-18 21:58N 33°45' W 118°12'0 0.0
2018-Feb-18 21:28N 33°45' W 118°12'0 0.0
2018-Feb-18 20:58N 33°45' W 118°12'0 0.0
2018-Feb-18 20:28N 33°45' W 118°12'0 0.0
2018-Feb-18 19:58N 33°45' W 118°12'0 0.0
2018-Feb-18 19:28N 33°45' W 118°12'0 0.0
2018-Feb-18 18:58N 33°45' W 118°12'0 0.0
2018-Feb-18 18:28N 33°45' W 118°12'0 0.0
2018-Feb-18 17:58N 33°45' W 118°12'0 0.0
2018-Feb-18 17:28N 33°45' W 118°12'0 0.0
2018-Feb-18 16:58N 33°45' W 118°12'0 0.0
2018-Feb-18 16:28N 33°45' W 118°12'0 0.0
2018-Feb-18 15:58N 33°45' W 118°12'0 0.0
2018-Feb-18 15:25N 33°45' W 118°12'0 0.0
2018-Feb-18 14:58N 33°45' W 118°12'0 0.0
2018-Feb-18 14:28N 33°45' W 118°12'0 0.0
2018-Feb-18 13:58N 33°45' W 118°12'0 0.0
2018-Feb-18 13:25N 33°45' W 118°12'0 0.0
2018-Feb-18 12:58N 33°45' W 118°12'0 0.0
2018-Feb-18 12:25N 33°45' W 118°12'0 0.0
2018-Feb-18 11:58N 33°45' W 118°12'0 0.0
2018-Feb-18 11:28N 33°45' W 118°12'0 0.0
2018-Feb-18 10:58N 33°45' W 118°12'0 0.0
2018-Feb-18 10:13N 33°45' W 118°12'0 0.0
2018-Feb-18 09:49N 33°45' W 118°12'0 0.0
2018-Feb-18 09:28N 33°45' W 118°12'0 0.0
2018-Feb-18 08:34N 33°45' W 118°12'0 0.0
2018-Feb-18 08:28N 33°45' W 118°12'0 0.0
2018-Feb-18 07:37N 33°45' W 118°12'0 0.0
2018-Feb-18 07:25N 33°45' W 118°12'0 0.0
2018-Feb-18 06:13N 33°45' W 118°12'0 0.2
2018-Feb-18 05:58N 33°45' W 118°12'0 0.1
2018-Feb-18 05:28N 33°45' W 118°12'0 0.0
2018-Feb-18 04:58N 33°45' W 118°12'0 0.0
2018-Feb-18 04:28N 33°45' W 118°12'0 0.0
2018-Feb-18 03:58N 33°45' W 118°12'0 0.0
2018-Feb-18 03:28N 33°45' W 118°12'0 0.0
2018-Feb-18 02:58N 33°45' W 118°12'0 0.0
2018-Feb-18 02:28N 33°45' W 118°12'0 0.0
2018-Feb-18 01:58N 33°45' W 118°12'0 0.0
2018-Feb-18 01:28N 33°45' W 118°12'0 0.0
2018-Feb-18 00:58N 33°45' W 118°12'0 0.0
2018-Feb-18 00:28N 33°45' W 118°12'0 0.0
2018-Feb-17 23:58N 33°45' W 118°12'0 0.0
2018-Feb-17 23:28N 33°45' W 118°12'0 0.0
2018-Feb-17 22:58N 33°45' W 118°12'0 0.0
2018-Feb-17 22:28N 33°45' W 118°12'0 0.0
2018-Feb-17 21:58N 33°45' W 118°12'0 0.0
2018-Feb-17 21:28N 33°45' W 118°12'0 0.0
2018-Feb-17 20:58N 33°45' W 118°12'0 0.0
2018-Feb-17 20:28N 33°45' W 118°12'0 0.0
2018-Feb-17 19:58N 33°45' W 118°12'0 0.1
2018-Feb-17 19:28N 33°45' W 118°12'0 0.1
2018-Feb-17 18:58N 33°45' W 118°12'0 0.0
2018-Feb-17 18:28N 33°45' W 118°12'0 0.0
2018-Feb-17 17:58N 33°45' W 118°12'0 0.1
2018-Feb-17 17:28N 33°45' W 118°12'0 0.0
2018-Feb-17 16:58N 33°45' W 118°12'0 0.0
2018-Feb-17 16:28N 33°45' W 118°12'0 0.0
2018-Feb-17 15:58N 33°45' W 118°12'0 0.0
2018-Feb-17 15:28N 33°45' W 118°12'0 0.0
2018-Feb-17 14:55N 33°45' W 118°12'0 0.1
2018-Feb-17 14:28N 33°45' W 118°12'0 0.0
2018-Feb-17 13:58N 33°45' W 118°12'0 0.1
2018-Feb-17 13:25N 33°45' W 118°12'0 0.1
2018-Feb-17 12:52N 33°45' W 118°12'0 0.0
2018-Feb-17 12:25N 33°45' W 118°12'0 0.0
2018-Feb-17 11:55N 33°45' W 118°12'0 0.0
2018-Feb-17 11:25N 33°45' W 118°12'0 0.0
2018-Feb-17 10:52N 33°45' W 118°12'0 0.0
2018-Feb-17 10:25N 33°45' W 118°12'0 0.1
2018-Feb-17 09:58N 33°45' W 118°12'0 0.1
2018-Feb-17 09:28N 33°45' W 118°12'0 0.0
2018-Feb-17 08:55N 33°45' W 118°12'0 0.0
2018-Feb-17 08:28N 33°45' W 118°12'0 0.0
2018-Feb-17 07:55N 33°45' W 118°12'0 0.1
2018-Feb-17 07:25N 33°45' W 118°12'0 0.1
2018-Feb-17 06:58N 33°45' W 118°12'0 0.0
2018-Feb-17 06:28N 33°45' W 118°12'0 0.0
2018-Feb-17 05:58N 33°45' W 118°12'0 0.0
2018-Feb-17 05:25N 33°45' W 118°12'0 0.0
2018-Feb-17 04:58N 33°45' W 118°12'0 0.0
2018-Feb-17 04:22N 33°45' W 118°12'0 0.0
2018-Feb-17 03:58N 33°45' W 118°12'0 0.0
2018-Feb-17 03:25N 33°45' W 118°12'0 0.0
2018-Feb-17 02:58N 33°45' W 118°12'0 0.0
2018-Feb-17 02:28N 33°45' W 118°12'0 0.0
2018-Feb-17 01:58N 33°45' W 118°12'0 0.0
2018-Feb-17 01:28N 33°45' W 118°12'0 0.0
2018-Feb-17 00:58N 33°45' W 118°12'0 0.0
2018-Feb-17 00:28N 33°45' W 118°12'0 0.0
2018-Feb-16 23:58N 33°45' W 118°12'0 0.0
2018-Feb-16 23:28N 33°45' W 118°12'0 0.0
2018-Feb-16 22:58N 33°45' W 118°12'0 0.0
2018-Feb-16 22:28N 33°45' W 118°12'0 0.0
2018-Feb-16 21:58N 33°45' W 118°12'0 0.0
2018-Feb-16 21:28N 33°45' W 118°12'0 0.1
2018-Feb-16 20:58N 33°45' W 118°12'0 0.1
2018-Feb-16 20:28N 33°45' W 118°12'0 0.0
2018-Feb-16 19:58N 33°45' W 118°12'0 0.0
2018-Feb-16 19:28N 33°45' W 118°12'0 0.0
2018-Feb-16 18:58N 33°45' W 118°12'0 0.0
2018-Feb-16 18:28N 33°45' W 118°12'0 0.0
2018-Feb-16 17:58N 33°45' W 118°12'0 0.0
2018-Feb-16 17:28N 33°45' W 118°12'0 0.0
2018-Feb-16 16:58N 33°45' W 118°12'0 0.0
2018-Feb-16 16:25N 33°45' W 118°12'0 0.0
2018-Feb-16 15:58N 33°45' W 118°12'0 0.0
2018-Feb-16 15:28N 33°45' W 118°12'0 0.1
2018-Feb-16 14:55N 33°45' W 118°12'0 0.1
2018-Feb-16 14:28N 33°45' W 118°12'0 0.1
2018-Feb-16 13:52N 33°45' W 118°12'0 0.0
2018-Feb-16 13:28N 33°45' W 118°12'0 0.1
2018-Feb-16 12:58N 33°45' W 118°12'0 0.0
2018-Feb-16 12:28N 33°45' W 118°12'0 0.1
2018-Feb-16 11:58N 33°45' W 118°12'0 0.1
2018-Feb-16 11:28N 33°45' W 118°12'0 0.0
2018-Feb-16 10:58N 33°45' W 118°12'0 0.0
2018-Feb-16 10:28N 33°45' W 118°12'0 0.0
2018-Feb-16 09:58N 33°45' W 118°12'0 0.0
2018-Feb-16 09:25N 33°45' W 118°12'0 0.1
2018-Feb-16 08:55N 33°45' W 118°12'0 0.1
2018-Feb-16 08:28N 33°45' W 118°12'0 0.0
2018-Feb-16 07:55N 33°45' W 118°12'0 0.0
2018-Feb-16 07:28N 33°45' W 118°12'0 0.0
2018-Feb-16 06:58N 33°45' W 118°12'0 0.1
2018-Feb-16 06:28N 33°45' W 118°12'0 0.1
2018-Feb-16 05:58N 33°45' W 118°12'0 0.0
2018-Feb-16 05:28N 33°45' W 118°12'0 0.0
2018-Feb-16 04:55N 33°45' W 118°12'0 0.0
2018-Feb-16 04:28N 33°45' W 118°12'0 0.0
2018-Feb-16 03:58N 33°45' W 118°12'0 0.0
2018-Feb-16 03:28N 33°45' W 118°12'0 0.0
2018-Feb-16 02:58N 33°45' W 118°12'0 0.0
2018-Feb-16 02:28N 33°45' W 118°12'0 0.0
2018-Feb-16 01:58N 33°45' W 118°12'0 0.0
2018-Feb-16 01:28N 33°45' W 118°12'0 0.0
2018-Feb-16 00:58N 33°45' W 118°12'0 0.0
2018-Feb-16 00:28N 33°45' W 118°12'0 0.0
2018-Feb-15 23:58N 33°45' W 118°12'0 0.0
2018-Feb-15 23:28N 33°45' W 118°12'0 0.0
2018-Feb-15 22:58N 33°45' W 118°12'0 0.0
2018-Feb-15 22:28N 33°45' W 118°12'0 0.0
2018-Feb-15 21:58N 33°45' W 118°12'0 0.0
2018-Feb-15 21:28N 33°45' W 118°12'0 0.1
2018-Feb-15 20:58N 33°45' W 118°12'0 0.1
2018-Feb-15 20:28N 33°45' W 118°12'0 0.0
2018-Feb-15 19:58N 33°45' W 118°12'0 0.0
2018-Feb-15 19:28N 33°45' W 118°12'0 0.1
2018-Feb-15 18:58N 33°45' W 118°12'0 0.0
2018-Feb-15 18:28N 33°45' W 118°12'0 0.0
2018-Feb-15 17:58N 33°45' W 118°12'0 0.1
2018-Feb-15 17:28N 33°45' W 118°12'0 0.0
2018-Feb-15 16:58N 33°45' W 118°12'0 0.0
2018-Feb-15 16:28N 33°45' W 118°12'0 0.0
2018-Feb-15 15:58N 33°45' W 118°12'0 0.0
2018-Feb-15 15:28N 33°45' W 118°12'0 0.0
2018-Feb-15 14:58N 33°45' W 118°12'0 0.0
2018-Feb-15 14:28N 33°45' W 118°12'0 0.0
2018-Feb-15 13:58N 33°45' W 118°12'0 0.1
2018-Feb-15 13:28N 33°45' W 118°12'0 0.1
2018-Feb-15 12:58N 33°45' W 118°12'0 0.0
2018-Feb-15 12:25N 33°45' W 118°12'0 0.0
2018-Feb-15 11:58N 33°45' W 118°12'0 0.0
2018-Feb-15 11:28N 33°45' W 118°12'0 0.0
2018-Feb-15 10:52N 33°45' W 118°12'0 0.1
2018-Feb-15 10:22N 33°45' W 118°12'0 0.1
2018-Feb-15 09:55N 33°45' W 118°12'0 0.0
2018-Feb-15 09:28N 33°45' W 118°12'0 0.1
2018-Feb-15 08:52N 33°45' W 118°12'0 0.1
2018-Feb-15 08:28N 33°45' W 118°12'0 0.0
2018-Feb-15 07:58N 33°45' W 118°12'0 0.0
2018-Feb-15 07:25N 33°45' W 118°12'0 0.1
2018-Feb-15 06:25N 33°45' W 118°12'0 0.1
2018-Feb-15 05:55N 33°45' W 118°12'0 0.0
2018-Feb-15 05:28N 33°45' W 118°12'0 0.0
2018-Feb-15 04:58N 33°45' W 118°12'0 0.0
2018-Feb-15 04:28N 33°45' W 118°12'0 0.0
2018-Feb-15 03:52N 33°45' W 118°12'0 0.0
2018-Feb-15 03:25N 33°45' W 118°12'0 0.0
2018-Feb-15 02:58N 33°45' W 118°12'0 0.0
2018-Feb-15 02:28N 33°45' W 118°12'0 0.0
2018-Feb-15 01:58N 33°45' W 118°12'0 0.0
2018-Feb-15 01:28N 33°45' W 118°12'0 0.0
2018-Feb-15 00:58N 33°45' W 118°12'0 0.0
2018-Feb-15 00:28N 33°45' W 118°12'0 0.0
2018-Feb-14 23:58N 33°45' W 118°12'0 0.1
2018-Feb-14 23:28N 33°45' W 118°12'0 0.7
2018-Feb-14 23:00N 33°44' W 118°12'2 4.7
2018-Feb-14 22:30N 33°42' W 118°11'4 8.5
2018-Feb-14 22:00N 33°38' W 118°12'5 8.8
2018-Feb-14 21:29N 33°36' W 118°17'5 9.8
2018-Feb-14 21:01N 33°37' W 118°22'611.8
2018-Feb-14 20:30N 33°40' W 118°29'611.6
2018-Feb-14 20:00N 33°43' W 118°35'611.8
2018-Feb-14 19:31N 33°45' W 118°41'611.7
2018-Feb-14 19:01N 33°48' W 118°47'611.5
2018-Feb-14 18:30N 33°51' W 118°53'611.6
2018-Feb-14 18:00N 33°54' W 118°59'611.6
2018-Feb-14 17:30N 33°57' W 119°05'815.6
2018-Feb-14 16:59N 34°01' W 119°14'816.3
2018-Feb-14 16:30N 34°04' W 119°22'916.5
2018-Feb-14 15:59N 34°06' W 119°33'817.1
2018-Feb-14 15:30N 34°08' W 119°42'916.9
2018-Feb-14 15:00N 34°10' W 119°52'917.2
2018-Feb-14 14:28N 34°13' W 120°03'817.1
2018-Feb-14 13:59N 34°15' W 120°12'816.7
2018-Feb-14 13:30N 34°17' W 120°21'916.5
2018-Feb-14 12:58N 34°20' W 120°32'816.7
2018-Feb-14 12:30N 34°22' W 120°41'816.7
2018-Feb-14 12:00N 34°24' W 120°50'916.5
2018-Feb-14 11:29N 34°25' W 121°01'817.1
2018-Feb-14 11:00N 34°25' W 121°11'917.3
2018-Feb-14 10:30N 34°25' W 121°21'817.0
2018-Feb-14 10:00N 34°25' W 121°32'917.0
2018-Feb-14 09:30N 34°25' W 121°42'917.3
2018-Feb-14 09:00N 34°25' W 121°52'817.1
2018-Feb-14 08:30N 34°25' W 122°03'  

Dump ship's entire track history